sensor_id;sensor_type;location;lat;lon;timestamp;temperature;humidity
51557;DHT22;38766;53.194;5.532;2023-09-08T00:02:06;20.40;99.90
51557;DHT22;38766;53.194;5.532;2023-09-08T00:04:32;20.40;99.90
51557;DHT22;38766;53.194;5.532;2023-09-08T00:07:01;20.40;99.90
51557;DHT22;38766;53.194;5.532;2023-09-08T00:09:27;20.40;99.90
51557;DHT22;38766;53.194;5.532;2023-09-08T00:11:52;20.40;99.90
51557;DHT22;38766;53.194;5.532;2023-09-08T00:14:20;20.40;99.90
51557;DHT22;38766;53.194;5.532;2023-09-08T00:16:45;20.40;99.90
51557;DHT22;38766;53.194;5.532;2023-09-08T00:19:11;20.40;99.90
51557;DHT22;38766;53.194;5.532;2023-09-08T00:21:37;20.30;99.90
51557;DHT22;38766;53.194;5.532;2023-09-08T00:24:04;20.30;99.90
51557;DHT22;38766;53.194;5.532;2023-09-08T00:26:30;20.30;99.90
51557;DHT22;38766;53.194;5.532;2023-09-08T00:28:56;20.30;99.90
51557;DHT22;38766;53.194;5.532;2023-09-08T00:31:21;20.20;99.90
51557;DHT22;38766;53.194;5.532;2023-09-08T00:33:47;20.20;99.90
51557;DHT22;38766;53.194;5.532;2023-09-08T00:36:13;20.20;99.90
51557;DHT22;38766;53.194;5.532;2023-09-08T00:38:38;20.20;99.90
51557;DHT22;38766;53.194;5.532;2023-09-08T00:41:05;20.20;99.90
51557;DHT22;38766;53.194;5.532;2023-09-08T00:43:30;20.10;99.90
51557;DHT22;38766;53.194;5.532;2023-09-08T00:45:56;20.10;99.90
51557;DHT22;38766;53.194;5.532;2023-09-08T00:48:24;20.00;99.90
51557;DHT22;38766;53.194;5.532;2023-09-08T00:50:50;20.00;99.90
51557;DHT22;38766;53.194;5.532;2023-09-08T00:53:17;20.00;99.90
51557;DHT22;38766;53.194;5.532;2023-09-08T00:55:43;20.00;99.90
51557;DHT22;38766;53.194;5.532;2023-09-08T00:58:09;20.00;99.90
51557;DHT22;38766;53.194;5.532;2023-09-08T01:00:35;19.90;99.90
51557;DHT22;38766;53.194;5.532;2023-09-08T01:03:01;19.90;99.90
51557;DHT22;38766;53.194;5.532;2023-09-08T01:05:28;19.90;99.90
51557;DHT22;38766;53.194;5.532;2023-09-08T01:07:54;19.90;99.90
51557;DHT22;38766;53.194;5.532;2023-09-08T01:10:21;19.90;99.90
51557;DHT22;38766;53.194;5.532;2023-09-08T01:12:47;19.90;99.90
51557;DHT22;38766;53.194;5.532;2023-09-08T01:15:13;19.90;99.90
51557;DHT22;38766;53.194;5.532;2023-09-08T01:17:38;19.90;99.90
51557;DHT22;38766;53.194;5.532;2023-09-08T01:25:24;19.80;99.90
51557;DHT22;38766;53.194;5.532;2023-09-08T01:27:55;19.90;99.90
51557;DHT22;38766;53.194;5.532;2023-09-08T01:30:23;19.80;99.90
51557;DHT22;38766;53.194;5.532;2023-09-08T01:32:50;19.80;99.90
51557;DHT22;38766;53.194;5.532;2023-09-08T01:35:16;19.80;99.90
51557;DHT22;38766;53.194;5.532;2023-09-08T01:37:46;19.80;99.90
51557;DHT22;38766;53.194;5.532;2023-09-08T01:40:13;19.80;99.90
51557;DHT22;38766;53.194;5.532;2023-09-08T01:42:39;19.70;99.90
51557;DHT22;38766;53.194;5.532;2023-09-08T01:45:05;19.70;99.90
51557;DHT22;38766;53.194;5.532;2023-09-08T01:47:32;19.70;99.90
51557;DHT22;38766;53.194;5.532;2023-09-08T01:49:58;19.70;99.90
51557;DHT22;38766;53.194;5.532;2023-09-08T01:52:24;19.60;99.90
51557;DHT22;38766;53.194;5.532;2023-09-08T01:54:50;19.60;99.90
51557;DHT22;38766;53.194;5.532;2023-09-08T01:57:16;19.60;99.90
51557;DHT22;38766;53.194;5.532;2023-09-08T01:59:42;19.60;99.90
51557;DHT22;38766;53.194;5.532;2023-09-08T02:02:07;19.60;99.90
51557;DHT22;38766;53.194;5.532;2023-09-08T02:04:33;19.60;99.90
51557;DHT22;38766;53.194;5.532;2023-09-08T02:06:59;19.60;99.90
51557;DHT22;38766;53.194;5.532;2023-09-08T02:09:35;19.60;99.90
51557;DHT22;38766;53.194;5.532;2023-09-08T02:12:02;19.60;99.90
51557;DHT22;38766;53.194;5.532;2023-09-08T02:14:27;19.50;99.90
51557;DHT22;38766;53.194;5.532;2023-09-08T02:16:54;19.50;99.90
51557;DHT22;38766;53.194;5.532;2023-09-08T02:19:19;19.50;99.90
51557;DHT22;38766;53.194;5.532;2023-09-08T02:21:45;19.60;99.90
51557;DHT22;38766;53.194;5.532;2023-09-08T02:24:11;19.50;99.90
51557;DHT22;38766;53.194;5.532;2023-09-08T02:26:38;19.60;99.90
51557;DHT22;38766;53.194;5.532;2023-09-08T02:29:04;19.50;99.90
51557;DHT22;38766;53.194;5.532;2023-09-08T02:31:30;19.50;99.90
51557;DHT22;38766;53.194;5.532;2023-09-08T02:33:56;19.50;99.90
51557;DHT22;38766;53.194;5.532;2023-09-08T02:36:22;19.40;99.90
51557;DHT22;38766;53.194;5.532;2023-09-08T02:38:54;19.30;99.90
51557;DHT22;38766;53.194;5.532;2023-09-08T02:41:20;19.10;99.90
51557;DHT22;38766;53.194;5.532;2023-09-08T02:43:46;19.00;99.90
51557;DHT22;38766;53.194;5.532;2023-09-08T02:46:12;18.80;99.90
51557;DHT22;38766;53.194;5.532;2023-09-08T02:48:38;18.70;99.90
51557;DHT22;38766;53.194;5.532;2023-09-08T02:51:04;18.60;99.90
51557;DHT22;38766;53.194;5.532;2023-09-08T02:53:30;18.60;99.90
51557;DHT22;38766;53.194;5.532;2023-09-08T02:55:56;18.40;99.90
51557;DHT22;38766;53.194;5.532;2023-09-08T02:58:22;18.30;99.90
51557;DHT22;38766;53.194;5.532;2023-09-08T03:00:48;18.30;99.90
51557;DHT22;38766;53.194;5.532;2023-09-08T03:03:13;18.30;99.90
51557;DHT22;38766;53.194;5.532;2023-09-08T03:05:39;18.20;99.90
51557;DHT22;38766;53.194;5.532;2023-09-08T03:08:05;18.20;99.90
51557;DHT22;38766;53.194;5.532;2023-09-08T03:10:31;18.10;99.90
51557;DHT22;38766;53.194;5.532;2023-09-08T03:13:00;18.10;99.90
51557;DHT22;38766;53.194;5.532;2023-09-08T03:15:26;18.10;99.90
51557;DHT22;38766;53.194;5.532;2023-09-08T03:17:54;18.00;99.90
51557;DHT22;38766;53.194;5.532;2023-09-08T03:20:20;18.10;99.90
51557;DHT22;38766;53.194;5.532;2023-09-08T03:22:46;18.00;99.90
51557;DHT22;38766;53.194;5.532;2023-09-08T03:25:13;18.00;99.90
51557;DHT22;38766;53.194;5.532;2023-09-08T03:27:40;18.10;99.90
51557;DHT22;38766;53.194;5.532;2023-09-08T03:30:06;18.00;99.90
51557;DHT22;38766;53.194;5.532;2023-09-08T03:32:32;18.00;99.90
51557;DHT22;38766;53.194;5.532;2023-09-08T03:34:57;18.00;99.90
51557;DHT22;38766;53.194;5.532;2023-09-08T03:37:23;18.00;99.90
51557;DHT22;38766;53.194;5.532;2023-09-08T03:39:49;18.00;99.90
51557;DHT22;38766;53.194;5.532;2023-09-08T03:42:14;18.00;99.90
51557;DHT22;38766;53.194;5.532;2023-09-08T03:44:40;18.00;99.90
51557;DHT22;38766;53.194;5.532;2023-09-08T03:47:06;18.00;99.90
51557;DHT22;38766;53.194;5.532;2023-09-08T03:49:32;17.90;99.90
51557;DHT22;38766;53.194;5.532;2023-09-08T03:51:58;17.90;99.90
51557;DHT22;38766;53.194;5.532;2023-09-08T03:54:24;17.90;99.90
51557;DHT22;38766;53.194;5.532;2023-09-08T03:56:49;17.90;99.90
51557;DHT22;38766;53.194;5.532;2023-09-08T03:59:15;17.80;99.90
51557;DHT22;38766;53.194;5.532;2023-09-08T04:01:41;17.80;99.90
51557;DHT22;38766;53.194;5.532;2023-09-08T04:04:07;17.70;99.90
51557;DHT22;38766;53.194;5.532;2023-09-08T04:06:32;17.70;99.90
51557;DHT22;38766;53.194;5.532;2023-09-08T04:08:58;17.70;99.90
51557;DHT22;38766;53.194;5.532;2023-09-08T04:11:24;17.60;99.90
51557;DHT22;38766;53.194;5.532;2023-09-08T04:13:49;17.70;99.90
51557;DHT22;38766;53.194;5.532;2023-09-08T04:16:15;17.70;99.90
51557;DHT22;38766;53.194;5.532;2023-09-08T04:18:41;17.60;99.90
51557;DHT22;38766;53.194;5.532;2023-09-08T04:21:07;17.50;99.90
51557;DHT22;38766;53.194;5.532;2023-09-08T04:23:33;17.60;99.90
51557;DHT22;38766;53.194;5.532;2023-09-08T04:25:59;17.50;99.90
51557;DHT22;38766;53.194;5.532;2023-09-08T04:28:24;17.60;99.90
51557;DHT22;38766;53.194;5.532;2023-09-08T04:30:50;17.60;99.90
51557;DHT22;38766;53.194;5.532;2023-09-08T04:33:16;17.60;99.90
51557;DHT22;38766;53.194;5.532;2023-09-08T04:35:41;17.60;99.90
51557;DHT22;38766;53.194;5.532;2023-09-08T04:38:07;17.60;99.90
51557;DHT22;38766;53.194;5.532;2023-09-08T04:40:33;17.60;99.90
51557;DHT22;38766;53.194;5.532;2023-09-08T04:42:59;17.60;99.90
51557;DHT22;38766;53.194;5.532;2023-09-08T04:45:25;17.60;99.90
51557;DHT22;38766;53.194;5.532;2023-09-08T04:47:50;17.60;99.90
51557;DHT22;38766;53.194;5.532;2023-09-08T04:50:16;17.60;99.90
51557;DHT22;38766;53.194;5.532;2023-09-08T04:52:42;17.70;99.90
51557;DHT22;38766;53.194;5.532;2023-09-08T04:55:08;17.60;99.90
51557;DHT22;38766;53.194;5.532;2023-09-08T04:57:33;17.60;99.90
51557;DHT22;38766;53.194;5.532;2023-09-08T04:59:59;17.60;99.90
51557;DHT22;38766;53.194;5.532;2023-09-08T05:02:24;17.50;99.90
51557;DHT22;38766;53.194;5.532;2023-09-08T05:04:50;17.60;99.90
51557;DHT22;38766;53.194;5.532;2023-09-08T05:07:16;17.50;99.90
51557;DHT22;38766;53.194;5.532;2023-09-08T05:09:43;17.50;99.90
51557;DHT22;38766;53.194;5.532;2023-09-08T05:12:09;17.50;99.90
51557;DHT22;38766;53.194;5.532;2023-09-08T05:14:34;17.50;99.90
51557;DHT22;38766;53.194;5.532;2023-09-08T05:17:00;17.50;99.90
51557;DHT22;38766;53.194;5.532;2023-09-08T05:19:26;17.50;99.90
51557;DHT22;38766;53.194;5.532;2023-09-08T05:21:54;17.50;99.90
51557;DHT22;38766;53.194;5.532;2023-09-08T05:24:20;17.50;99.90
51557;DHT22;38766;53.194;5.532;2023-09-08T05:26:47;17.50;99.90
51557;DHT22;38766;53.194;5.532;2023-09-08T05:29:13;17.50;99.90
51557;DHT22;38766;53.194;5.532;2023-09-08T05:31:38;17.50;99.90
51557;DHT22;38766;53.194;5.532;2023-09-08T05:34:04;17.50;99.90
51557;DHT22;38766;53.194;5.532;2023-09-08T05:36:30;17.50;99.90
51557;DHT22;38766;53.194;5.532;2023-09-08T05:38:56;17.60;99.90
51557;DHT22;38766;53.194;5.532;2023-09-08T05:41:22;17.60;99.90
51557;DHT22;38766;53.194;5.532;2023-09-08T05:43:48;17.60;99.90
51557;DHT22;38766;53.194;5.532;2023-09-08T05:46:13;17.50;99.90
51557;DHT22;38766;53.194;5.532;2023-09-08T05:48:39;17.50;99.90
51557;DHT22;38766;53.194;5.532;2023-09-08T05:51:05;17.50;99.90
51557;DHT22;38766;53.194;5.532;2023-09-08T05:53:32;17.60;99.90
51557;DHT22;38766;53.194;5.532;2023-09-08T05:55:58;17.60;99.90
51557;DHT22;38766;53.194;5.532;2023-09-08T05:58:24;17.60;99.90
51557;DHT22;38766;53.194;5.532;2023-09-08T06:00:53;17.60;99.90
51557;DHT22;38766;53.194;5.532;2023-09-08T06:03:19;17.60;99.90
51557;DHT22;38766;53.194;5.532;2023-09-08T06:05:44;17.60;99.90
51557;DHT22;38766;53.194;5.532;2023-09-08T06:08:10;17.60;99.90
51557;DHT22;38766;53.194;5.532;2023-09-08T06:10:37;17.60;99.90
51557;DHT22;38766;53.194;5.532;2023-09-08T06:13:03;17.70;99.90
51557;DHT22;38766;53.194;5.532;2023-09-08T06:15:28;17.70;99.90
51557;DHT22;38766;53.194;5.532;2023-09-08T06:17:54;17.80;99.90
51557;DHT22;38766;53.194;5.532;2023-09-08T06:20:20;17.80;99.90
51557;DHT22;38766;53.194;5.532;2023-09-08T06:22:46;17.90;99.90
51557;DHT22;38766;53.194;5.532;2023-09-08T06:25:12;17.90;99.90
51557;DHT22;38766;53.194;5.532;2023-09-08T06:27:38;17.90;99.90
51557;DHT22;38766;53.194;5.532;2023-09-08T06:30:04;18.00;99.90
51557;DHT22;38766;53.194;5.532;2023-09-08T06:32:30;18.10;99.90
51557;DHT22;38766;53.194;5.532;2023-09-08T06:34:55;18.20;99.90
51557;DHT22;38766;53.194;5.532;2023-09-08T06:37:21;18.20;99.90
51557;DHT22;38766;53.194;5.532;2023-09-08T06:39:47;18.30;99.90
51557;DHT22;38766;53.194;5.532;2023-09-08T06:42:12;18.30;99.90
51557;DHT22;38766;53.194;5.532;2023-09-08T06:44:38;18.50;99.90
51557;DHT22;38766;53.194;5.532;2023-09-08T06:47:04;18.50;99.90
51557;DHT22;38766;53.194;5.532;2023-09-08T06:49:32;18.60;99.90
51557;DHT22;38766;53.194;5.532;2023-09-08T06:51:58;18.70;99.90
51557;DHT22;38766;53.194;5.532;2023-09-08T06:54:23;18.80;99.90
51557;DHT22;38766;53.194;5.532;2023-09-08T06:56:49;18.90;99.90
51557;DHT22;38766;53.194;5.532;2023-09-08T06:59:15;19.10;99.90
51557;DHT22;38766;53.194;5.532;2023-09-08T07:01:40;19.70;99.90
51557;DHT22;38766;53.194;5.532;2023-09-08T07:04:06;20.50;99.90
51557;DHT22;38766;53.194;5.532;2023-09-08T07:06:32;21.40;99.90
51557;DHT22;38766;53.194;5.532;2023-09-08T07:08:57;22.10;99.90
51557;DHT22;38766;53.194;5.532;2023-09-08T07:11:23;22.70;99.90
51557;DHT22;38766;53.194;5.532;2023-09-08T07:13:48;23.20;99.90
51557;DHT22;38766;53.194;5.532;2023-09-08T07:16:14;23.50;99.90
51557;DHT22;38766;53.194;5.532;2023-09-08T07:18:39;23.60;99.90
51557;DHT22;38766;53.194;5.532;2023-09-08T07:21:05;23.70;99.90
51557;DHT22;38766;53.194;5.532;2023-09-08T07:23:31;23.70;99.90
51557;DHT22;38766;53.194;5.532;2023-09-08T07:25:57;23.60;99.90
51557;DHT22;38766;53.194;5.532;2023-09-08T07:28:23;23.50;99.90
51557;DHT22;38766;53.194;5.532;2023-09-08T07:30:48;23.40;99.90
51557;DHT22;38766;53.194;5.532;2023-09-08T07:33:14;23.40;99.90
51557;DHT22;38766;53.194;5.532;2023-09-08T07:35:40;23.50;99.90
51557;DHT22;38766;53.194;5.532;2023-09-08T07:38:06;23.70;99.90
51557;DHT22;38766;53.194;5.532;2023-09-08T07:40:35;23.80;99.90
51557;DHT22;38766;53.194;5.532;2023-09-08T07:43:01;24.00;99.90
51557;DHT22;38766;53.194;5.532;2023-09-08T07:45:28;24.00;99.90
51557;DHT22;38766;53.194;5.532;2023-09-08T07:47:53;24.10;99.90
51557;DHT22;38766;53.194;5.532;2023-09-08T07:50:26;24.20;99.90
51557;DHT22;38766;53.194;5.532;2023-09-08T07:52:54;24.20;99.90
51557;DHT22;38766;53.194;5.532;2023-09-08T07:55:20;24.30;99.90
51557;DHT22;38766;53.194;5.532;2023-09-08T07:57:52;24.40;99.90
51557;DHT22;38766;53.194;5.532;2023-09-08T08:00:19;24.40;99.90
51557;DHT22;38766;53.194;5.532;2023-09-08T08:02:54;24.40;99.90
51557;DHT22;38766;53.194;5.532;2023-09-08T08:05:19;24.50;99.90
51557;DHT22;38766;53.194;5.532;2023-09-08T08:07:45;24.60;99.90
51557;DHT22;38766;53.194;5.532;2023-09-08T08:10:12;24.60;99.90
51557;DHT22;38766;53.194;5.532;2023-09-08T08:12:38;24.70;99.90
51557;DHT22;38766;53.194;5.532;2023-09-08T08:15:05;24.80;99.90
51557;DHT22;38766;53.194;5.532;2023-09-08T08:17:31;24.90;99.90
51557;DHT22;38766;53.194;5.532;2023-09-08T08:19:57;25.00;99.90
51557;DHT22;38766;53.194;5.532;2023-09-08T08:22:32;25.10;99.90
51557;DHT22;38766;53.194;5.532;2023-09-08T08:24:58;25.10;99.90
51557;DHT22;38766;53.194;5.532;2023-09-08T08:27:23;25.20;99.90
51557;DHT22;38766;53.194;5.532;2023-09-08T08:29:49;25.40;99.90
51557;DHT22;38766;53.194;5.532;2023-09-08T08:32:16;25.50;99.90
51557;DHT22;38766;53.194;5.532;2023-09-08T08:34:42;25.70;99.90
51557;DHT22;38766;53.194;5.532;2023-09-08T08:37:08;25.80;99.90
51557;DHT22;38766;53.194;5.532;2023-09-08T08:39:33;25.70;99.90
51557;DHT22;38766;53.194;5.532;2023-09-08T08:42:06;25.80;99.90
51557;DHT22;38766;53.194;5.532;2023-09-08T08:44:33;25.90;99.90
51557;DHT22;38766;53.194;5.532;2023-09-08T08:47:00;26.10;99.90
51557;DHT22;38766;53.194;5.532;2023-09-08T08:49:27;26.20;99.90
51557;DHT22;38766;53.194;5.532;2023-09-08T08:51:54;26.40;99.90
51557;DHT22;38766;53.194;5.532;2023-09-08T08:54:21;26.60;99.90
51557;DHT22;38766;53.194;5.532;2023-09-08T08:56:47;26.70;99.90
51557;DHT22;38766;53.194;5.532;2023-09-08T08:59:14;26.70;99.90
51557;DHT22;38766;53.194;5.532;2023-09-08T09:01:41;26.70;99.90
51557;DHT22;38766;53.194;5.532;2023-09-08T09:04:08;26.70;99.90
51557;DHT22;38766;53.194;5.532;2023-09-08T09:06:35;26.80;99.90
51557;DHT22;38766;53.194;5.532;2023-09-08T09:09:01;27.00;99.90
51557;DHT22;38766;53.194;5.532;2023-09-08T09:11:29;26.90;99.90
51557;DHT22;38766;53.194;5.532;2023-09-08T09:13:56;27.00;99.90
51557;DHT22;38766;53.194;5.532;2023-09-08T09:16:22;27.10;99.90
51557;DHT22;38766;53.194;5.532;2023-09-08T09:18:58;27.30;99.90
51557;DHT22;38766;53.194;5.532;2023-09-08T09:21:46;27.40;99.90
51557;DHT22;38766;53.194;5.532;2023-09-08T09:24:35;27.20;99.90
51557;DHT22;38766;53.194;5.532;2023-09-08T09:27:03;27.20;99.90
51557;DHT22;38766;53.194;5.532;2023-09-08T09:29:33;27.30;99.90
51557;DHT22;38766;53.194;5.532;2023-09-08T09:32:04;27.20;99.90
51557;DHT22;38766;53.194;5.532;2023-09-08T09:34:31;27.30;99.90
51557;DHT22;38766;53.194;5.532;2023-09-08T09:36:57;27.40;99.90
51557;DHT22;38766;53.194;5.532;2023-09-08T09:39:24;27.50;99.90
51557;DHT22;38766;53.194;5.532;2023-09-08T09:41:54;27.60;99.90
51557;DHT22;38766;53.194;5.532;2023-09-08T09:44:21;27.50;99.90
51557;DHT22;38766;53.194;5.532;2023-09-08T09:46:47;27.50;99.90
51557;DHT22;38766;53.194;5.532;2023-09-08T09:49:15;27.50;99.90
51557;DHT22;38766;53.194;5.532;2023-09-08T09:51:44;27.60;99.90
51557;DHT22;38766;53.194;5.532;2023-09-08T09:54:11;27.70;99.90
51557;DHT22;38766;53.194;5.532;2023-09-08T09:56:41;27.60;99.90
51557;DHT22;38766;53.194;5.532;2023-09-08T09:59:11;27.70;99.90
51557;DHT22;38766;53.194;5.532;2023-09-08T10:01:38;27.70;99.90
51557;DHT22;38766;53.194;5.532;2023-09-08T10:04:05;27.70;99.90
51557;DHT22;38766;53.194;5.532;2023-09-08T10:06:32;27.80;99.90
51557;DHT22;38766;53.194;5.532;2023-09-08T10:09:00;27.80;99.90
51557;DHT22;38766;53.194;5.532;2023-09-08T10:11:29;27.90;99.90
51557;DHT22;38766;53.194;5.532;2023-09-08T10:13:58;27.90;99.90
51557;DHT22;38766;53.194;5.532;2023-09-08T10:16:27;28.10;99.90
51557;DHT22;38766;53.194;5.532;2023-09-08T10:18:54;28.10;99.90
51557;DHT22;38766;53.194;5.532;2023-09-08T10:21:25;28.20;99.90
51557;DHT22;38766;53.194;5.532;2023-09-08T10:24:19;28.10;99.90
51557;DHT22;38766;53.194;5.532;2023-09-08T10:27:12;28.20;99.90
51557;DHT22;38766;53.194;5.532;2023-09-08T10:29:38;28.30;99.90
51557;DHT22;38766;53.194;5.532;2023-09-08T10:32:06;28.50;99.90
51557;DHT22;38766;53.194;5.532;2023-09-08T10:34:34;28.70;99.90
51557;DHT22;38766;53.194;5.532;2023-09-08T10:37:00;28.70;99.90
51557;DHT22;38766;53.194;5.532;2023-09-08T10:39:34;28.80;99.90
51557;DHT22;38766;53.194;5.532;2023-09-08T10:44:43;28.70;99.90
51557;DHT22;38766;53.194;5.532;2023-09-08T10:47:09;28.60;99.90
51557;DHT22;38766;53.194;5.532;2023-09-08T10:49:36;28.60;99.90
51557;DHT22;38766;53.194;5.532;2023-09-08T10:52:09;28.70;99.90
51557;DHT22;38766;53.194;5.532;2023-09-08T10:54:41;28.70;99.90
51557;DHT22;38766;53.194;5.532;2023-09-08T10:57:13;28.80;99.90
51557;DHT22;38766;53.194;5.532;2023-09-08T11:00:02;28.90;99.90
51557;DHT22;38766;53.194;5.532;2023-09-08T11:02:42;28.80;99.90
51557;DHT22;38766;53.194;5.532;2023-09-08T11:05:09;28.90;99.90
51557;DHT22;38766;53.194;5.532;2023-09-08T11:07:39;29.10;99.90
51557;DHT22;38766;53.194;5.532;2023-09-08T11:10:06;29.10;99.90
51557;DHT22;38766;53.194;5.532;2023-09-08T11:12:32;29.20;99.90
51557;DHT22;38766;53.194;5.532;2023-09-08T11:14:59;29.10;99.90
51557;DHT22;38766;53.194;5.532;2023-09-08T11:17:31;29.20;99.90
51557;DHT22;38766;53.194;5.532;2023-09-08T11:19:57;29.20;99.90
51557;DHT22;38766;53.194;5.532;2023-09-08T11:22:24;29.20;99.90
51557;DHT22;38766;53.194;5.532;2023-09-08T11:24:51;29.30;99.90
51557;DHT22;38766;53.194;5.532;2023-09-08T11:27:18;29.40;99.90
51557;DHT22;38766;53.194;5.532;2023-09-08T11:29:44;29.60;99.90
51557;DHT22;38766;53.194;5.532;2023-09-08T11:32:10;29.60;99.90
51557;DHT22;38766;53.194;5.532;2023-09-08T11:34:37;29.60;99.90
51557;DHT22;38766;53.194;5.532;2023-09-08T11:37:12;29.70;99.90
51557;DHT22;38766;53.194;5.532;2023-09-08T11:39:42;29.80;99.90
51557;DHT22;38766;53.194;5.532;2023-09-08T11:42:13;29.80;99.90
51557;DHT22;38766;53.194;5.532;2023-09-08T11:44:40;29.90;99.90
51557;DHT22;38766;53.194;5.532;2023-09-08T11:47:07;30.00;99.90
51557;DHT22;38766;53.194;5.532;2023-09-08T11:49:35;30.00;99.90
51557;DHT22;38766;53.194;5.532;2023-09-08T11:52:01;30.00;99.90
51557;DHT22;38766;53.194;5.532;2023-09-08T11:54:27;30.00;99.90
51557;DHT22;38766;53.194;5.532;2023-09-08T11:56:54;30.00;99.90
51557;DHT22;38766;53.194;5.532;2023-09-08T11:59:20;29.80;99.90
51557;DHT22;38766;53.194;5.532;2023-09-08T12:01:46;29.90;99.90
51557;DHT22;38766;53.194;5.532;2023-09-08T12:04:18;29.90;99.90
51557;DHT22;38766;53.194;5.532;2023-09-08T12:06:46;30.10;99.90
51557;DHT22;38766;53.194;5.532;2023-09-08T12:09:12;30.10;99.70
51557;DHT22;38766;53.194;5.532;2023-09-08T12:11:37;30.10;99.80
51557;DHT22;38766;53.194;5.532;2023-09-08T12:14:11;30.10;99.50
51557;DHT22;38766;53.194;5.532;2023-09-08T12:16:37;30.10;99.20
51557;DHT22;38766;53.194;5.532;2023-09-08T12:19:03;30.00;98.90
51557;DHT22;38766;53.194;5.532;2023-09-08T12:21:28;30.10;99.40
51557;DHT22;38766;53.194;5.532;2023-09-08T12:23:54;30.10;99.50
51557;DHT22;38766;53.194;5.532;2023-09-08T12:26:21;30.20;99.50
51557;DHT22;38766;53.194;5.532;2023-09-08T12:28:47;30.30;99.60
51557;DHT22;38766;53.194;5.532;2023-09-08T12:31:13;30.40;99.40
51557;DHT22;38766;53.194;5.532;2023-09-08T12:33:40;30.50;99.00
51557;DHT22;38766;53.194;5.532;2023-09-08T12:36:18;30.60;98.50
51557;DHT22;38766;53.194;5.532;2023-09-08T12:38:47;30.60;97.60
51557;DHT22;38766;53.194;5.532;2023-09-08T12:41:13;30.50;97.80
51557;DHT22;38766;53.194;5.532;2023-09-08T12:43:39;30.40;97.90
51557;DHT22;38766;53.194;5.532;2023-09-08T12:46:05;30.40;97.90
51557;DHT22;38766;53.194;5.532;2023-09-08T12:48:30;30.30;97.60
51557;DHT22;38766;53.194;5.532;2023-09-08T12:50:56;30.20;97.60
51557;DHT22;38766;53.194;5.532;2023-09-08T12:53:22;30.10;97.50
51557;DHT22;38766;53.194;5.532;2023-09-08T12:55:48;29.90;97.60
51557;DHT22;38766;53.194;5.532;2023-09-08T12:58:15;29.90;97.80
51557;DHT22;38766;53.194;5.532;2023-09-08T13:00:41;29.90;97.90
51557;DHT22;38766;53.194;5.532;2023-09-08T13:03:06;29.90;97.60
51557;DHT22;38766;53.194;5.532;2023-09-08T13:05:32;29.90;97.80
51557;DHT22;38766;53.194;5.532;2023-09-08T13:07:58;29.90;97.70
51557;DHT22;38766;53.194;5.532;2023-09-08T13:10:23;29.90;97.90
51557;DHT22;38766;53.194;5.532;2023-09-08T13:12:49;29.90;98.10
51557;DHT22;38766;53.194;5.532;2023-09-08T13:15:15;29.90;97.90
51557;DHT22;38766;53.194;5.532;2023-09-08T13:17:40;30.10;97.90
51557;DHT22;38766;53.194;5.532;2023-09-08T13:20:07;30.00;97.50
51557;DHT22;38766;53.194;5.532;2023-09-08T13:22:33;30.00;97.60
51557;DHT22;38766;53.194;5.532;2023-09-08T13:24:59;30.00;97.80
51557;DHT22;38766;53.194;5.532;2023-09-08T13:27:24;29.90;97.50
51557;DHT22;38766;53.194;5.532;2023-09-08T13:29:50;29.90;97.70
51557;DHT22;38766;53.194;5.532;2023-09-08T13:32:16;29.90;97.80
51557;DHT22;38766;53.194;5.532;2023-09-08T13:34:41;30.00;97.80
51557;DHT22;38766;53.194;5.532;2023-09-08T13:37:09;30.10;97.80
51557;DHT22;38766;53.194;5.532;2023-09-08T13:39:34;30.20;97.60
51557;DHT22;38766;53.194;5.532;2023-09-08T13:42:01;30.20;97.50
51557;DHT22;38766;53.194;5.532;2023-09-08T13:44:27;30.30;97.50
51557;DHT22;38766;53.194;5.532;2023-09-08T13:46:54;30.20;97.20
51557;DHT22;38766;53.194;5.532;2023-09-08T13:49:20;30.10;97.40
51557;DHT22;38766;53.194;5.532;2023-09-08T13:51:46;30.10;97.50
51557;DHT22;38766;53.194;5.532;2023-09-08T13:54:12;30.10;97.70
51557;DHT22;38766;53.194;5.532;2023-09-08T13:56:41;30.20;97.90
51557;DHT22;38766;53.194;5.532;2023-09-08T13:59:07;30.20;97.90
51557;DHT22;38766;53.194;5.532;2023-09-08T14:01:34;30.20;97.90
51557;DHT22;38766;53.194;5.532;2023-09-08T14:04:01;30.20;97.70
51557;DHT22;38766;53.194;5.532;2023-09-08T14:06:27;30.20;97.80
51557;DHT22;38766;53.194;5.532;2023-09-08T14:08:53;30.20;97.70
51557;DHT22;38766;53.194;5.532;2023-09-08T14:11:20;30.30;97.40
51557;DHT22;38766;53.194;5.532;2023-09-08T14:13:46;30.30;97.00
51557;DHT22;38766;53.194;5.532;2023-09-08T14:16:12;30.30;96.80
51557;DHT22;38766;53.194;5.532;2023-09-08T14:18:38;30.30;97.10
51557;DHT22;38766;53.194;5.532;2023-09-08T14:21:04;30.40;97.30
51557;DHT22;38766;53.194;5.532;2023-09-08T14:23:30;30.30;97.30
51557;DHT22;38766;53.194;5.532;2023-09-08T14:25:56;30.40;97.40
51557;DHT22;38766;53.194;5.532;2023-09-08T14:28:22;30.40;97.30
51557;DHT22;38766;53.194;5.532;2023-09-08T14:30:49;30.50;97.30
51557;DHT22;38766;53.194;5.532;2023-09-08T14:33:16;30.50;97.20
51557;DHT22;38766;53.194;5.532;2023-09-08T14:35:42;30.40;97.10
51557;DHT22;38766;53.194;5.532;2023-09-08T14:38:09;30.40;97.20
51557;DHT22;38766;53.194;5.532;2023-09-08T14:40:34;30.40;97.20
51557;DHT22;38766;53.194;5.532;2023-09-08T14:43:00;30.50;97.00
51557;DHT22;38766;53.194;5.532;2023-09-08T14:45:26;30.40;96.90
51557;DHT22;38766;53.194;5.532;2023-09-08T14:47:54;30.30;97.00
51557;DHT22;38766;53.194;5.532;2023-09-08T14:50:20;30.20;97.50
51557;DHT22;38766;53.194;5.532;2023-09-08T14:52:45;30.20;97.60
51557;DHT22;38766;53.194;5.532;2023-09-08T14:55:11;30.10;97.20
51557;DHT22;38766;53.194;5.532;2023-09-08T14:57:37;30.00;97.10
51557;DHT22;38766;53.194;5.532;2023-09-08T15:00:06;29.90;97.40
51557;DHT22;38766;53.194;5.532;2023-09-08T15:02:33;29.80;97.50
51557;DHT22;38766;53.194;5.532;2023-09-08T15:04:59;29.90;97.50
51557;DHT22;38766;53.194;5.532;2023-09-08T15:07:25;30.00;97.70
51557;DHT22;38766;53.194;5.532;2023-09-08T15:09:50;30.00;97.40
51557;DHT22;38766;53.194;5.532;2023-09-08T15:12:16;30.00;97.60
51557;DHT22;38766;53.194;5.532;2023-09-08T15:14:42;30.00;97.80
51557;DHT22;38766;53.194;5.532;2023-09-08T15:17:08;30.00;97.50
51557;DHT22;38766;53.194;5.532;2023-09-08T15:19:33;30.10;97.60
51557;DHT22;38766;53.194;5.532;2023-09-08T15:21:59;30.10;98.00
51557;DHT22;38766;53.194;5.532;2023-09-08T15:24:25;30.20;98.60
51557;DHT22;38766;53.194;5.532;2023-09-08T15:26:50;30.20;98.90
51557;DHT22;38766;53.194;5.532;2023-09-08T15:29:16;30.20;99.10
51557;DHT22;38766;53.194;5.532;2023-09-08T15:31:45;30.30;99.10
51557;DHT22;38766;53.194;5.532;2023-09-08T15:34:12;30.30;99.10
51557;DHT22;38766;53.194;5.532;2023-09-08T15:36:37;30.30;98.90